Hannersville, North Carolina
Current Conditions -  °F | °C
As of 8:15 PM on Sunday 23 Nov 2014 (Local Time) from KEXX Reporting Station
Moderate Rain Moderate Rain  
Wind Chill: 59°   Ceiling: 600
Heat Index: 59°   Visibility: 7mi
Dew Point: 58°   Wind: 10mph
Humidity: 97%   Direction: 130°SE
Pressure: 29.79"   Gusts: 22mph
Location:  35.7974°N, 80.2541°W
Report Text: KEXX 240115Z AUTO 13009G19KT 7SM RA OVC006 15/14 A2979 RMK AO2 P0002 T01480143
Loading
Personal Weather Stations






























Interactive Weather Map New forecast layout! Learn more

10-Day Weather Forecast

Advertisements
Track Severe Weather on mobile